Time;durP1;ratioP1;P1;durP2;ratioP2;P2;SDS_P1;SDS_P2;PMS_P1;PMS_P2;Temp;Humidity;BMP_temperature;BMP_pressure;BME280_temperature;BME280_humidity;BME280_pressure;Samples;Min_cycle;Max_cycle;Signal;HPM_P1;HPM_P2
2022/01/08 00:01:39;;;;;;;0.00;0.00;;;0.90;99.90;;;;;;5021870;28;20060;-69
2022/01/08 00:04:05;;;;;;;0.00;0.00;;;0.90;99.90;;;;;;5037069;28;20748;-70
2022/01/08 00:06:31;;;;;;;0.00;0.00;;;0.80;99.90;;;;;;5022824;28;20049;-69
2022/01/08 00:08:57;;;;;;;0.00;0.00;;;0.90;99.90;;;;;;5022436;28;20124;-69
2022/01/08 00:11:26;;;;;;;0.00;0.00;;;0.80;99.90;;;;;;5022416;28;20527;-69
2022/01/08 00:13:52;;;;;;;2.20;2.00;;;0.90;99.90;;;;;;5021650;28;20129;-69
2022/01/08 00:16:18;;;;;;;0.00;0.00;;;0.80;99.90;;;;;;5021401;28;20132;-69
2022/01/08 00:18:43;;;;;;;0.00;0.00;;;0.80;99.90;;;;;;5021979;28;20304;-69
2022/01/08 00:21:09;;;;;;;0.00;0.00;;;0.80;99.90;;;;;;5022218;28;20045;-69
2022/01/08 00:23:36;;;;;;;0.00;0.00;;;0.80;99.90;;;;;;5021710;28;20511;-69
2022/01/08 00:26:04;;;;;;;0.00;0.00;;;0.80;99.90;;;;;;5022171;28;20085;-69
2022/01/08 00:28:30;;;;;;;0.00;0.00;;;0.70;99.90;;;;;;5028443;28;20056;-69
2022/01/08 00:30:55;;;;;;;0.00;0.00;;;0.80;99.90;;;;;;5024518;28;20037;-69
2022/01/08 00:33:21;;;;;;;0.10;0.10;;;0.80;99.90;;;;;;5022123;28;20088;-70
2022/01/08 00:35:47;;;;;;;0.00;0.00;;;0.80;99.90;;;;;;5020472;28;20037;-69
2022/01/08 00:38:13;;;;;;;0.00;0.00;;;0.80;99.90;;;;;;5021837;28;20111;-70
2022/01/08 00:40:39;;;;;;;0.00;0.00;;;0.80;99.90;;;;;;5021388;28;20438;-69
2022/01/08 00:43:05;;;;;;;0.00;0.00;;;0.80;99.90;;;;;;5021626;28;20103;-69
2022/01/08 00:45:31;;;;;;;0.00;0.00;;;0.80;99.90;;;;;;5022725;28;20362;-70
2022/01/08 00:47:56;;;;;;;0.00;0.00;;;0.80;99.90;;;;;;5020984;28;20754;-70
2022/01/08 00:50:30;;;;;;;0.00;0.00;;;0.50;99.90;;;;;;5139745;27;20369;-68
2022/01/08 00:52:56;;;;;;;0.00;0.00;;;0.70;99.90;;;;;;5118741;28;20047;-70
2022/01/08 00:55:21;;;;;;;0.00;0.00;;;0.70;99.90;;;;;;5118833;28;20039;-69
2022/01/08 00:57:47;;;;;;;0.00;0.00;;;0.70;99.90;;;;;;5100468;28;20071;-70
2022/01/08 01:00:13;;;;;;;0.00;0.00;;;0.80;99.90;;;;;;5118821;28;20042;-69
2022/01/08 01:02:40;;;;;;;0.00;0.00;;;0.70;99.90;;;;;;5118273;28;20051;-69
2022/01/08 01:05:07;;;;;;;0.00;0.00;;;0.70;99.90;;;;;;5118540;28;20095;-67
2022/01/08 01:07:33;;;;;;;0.20;0.20;;;0.70;99.90;;;;;;5117900;28;20040;-69
2022/01/08 01:09:59;;;;;;;0.03;0.03;;;0.60;99.90;;;;;;5118850;28;20039;-69
2022/01/08 01:12:24;;;;;;;0.30;0.30;;;1.10;99.90;;;;;;5118617;28;20089;-68
2022/01/08 01:14:50;;;;;;;0.00;0.00;;;0.70;99.90;;;;;;5118889;28;20039;-69
2022/01/08 01:17:16;;;;;;;0.00;0.00;;;2.10;99.90;;;;;;5116909;28;20044;-69
2022/01/08 01:19:42;;;;;;;0.35;0.35;;;0.60;99.90;;;;;;5117839;28;20047;-69
2022/01/08 01:22:08;;;;;;;0.00;0.00;;;0.60;99.90;;;;;;5118736;28;20457;-69
2022/01/08 01:24:36;;;;;;;0.00;0.00;;;0.80;99.90;;;;;;5118538;28;20039;-69
2022/01/08 01:30:00;;;;;;;0.00;0.00;;;0.60;99.90;;;;;;5097215;28;20676;-68
2022/01/08 01:48:57;;;;;;;0.00;0.00;;;0.60;99.90;;;;;;5096978;28;20082;-68
2022/01/08 01:51:23;;;;;;;0.00;0.00;;;0.60;99.90;;;;;;5097275;28;20044;-70
2022/01/08 01:53:50;;;;;;;0.00;0.00;;;0.50;99.90;;;;;;5096438;28;20044;-69
2022/01/08 01:56:18;;;;;;;0.00;0.00;;;0.60;99.90;;;;;;5097121;28;20113;-69
2022/01/08 01:58:43;;;;;;;0.00;0.00;;;0.60;99.90;;;;;;5097284;28;20047;-69
2022/01/08 02:01:09;;;;;;;0.00;0.00;;;0.60;99.90;;;;;;5068868;28;20047;-69
2022/01/08 02:03:35;;;;;;;0.00;0.00;;;0.60;99.90;;;;;;5082817;28;20105;-68
2022/01/08 02:06:01;;;;;;;0.00;0.00;;;0.40;99.90;;;;;;5065336;28;20043;-68
2022/01/08 02:08:29;;;;;;;0.00;0.00;;;0.60;99.90;;;;;;5093280;28;20040;-68
2022/01/08 02:10:55;;;;;;;0.00;0.00;;;0.70;99.90;;;;;;5103647;28;20076;-68
2022/01/08 02:13:28;;;;;;;0.00;0.00;;;0.60;99.90;;;;;;5103306;28;20028;-68
2022/01/08 02:15:55;;;;;;;0.00;0.00;;;0.70;99.90;;;;;;5084819;28;20051;-68
2022/01/08 02:18:25;;;;;;;0.00;0.00;;;0.80;99.90;;;;;;5103696;28;20036;-68
2022/01/08 02:20:52;;;;;;;0.00;0.00;;;0.90;99.90;;;;;;5103036;28;20039;-68
2022/01/08 02:23:18;;;;;;;0.00;0.00;;;0.90;99.90;;;;;;5103727;28;20055;-68
2022/01/08 02:25:44;;;;;;;0.00;0.00;;;1.00;99.90;;;;;;5103456;28;20036;-68
2022/01/08 02:28:10;;;;;;;0.00;0.00;;;1.00;99.90;;;;;;5096723;28;20031;-69
2022/01/08 02:30:35;;;;;;;0.00;0.00;;;1.10;99.90;;;;;;5089550;28;20039;-69
2022/01/08 02:33:01;;;;;;;0.00;0.00;;;1.00;99.90;;;;;;5064977;28;20052;-68
2022/01/08 02:35:27;;;;;;;0.00;0.00;;;1.00;99.90;;;;;;5082862;28;20040;-68
2022/01/08 02:37:53;;;;;;;0.00;0.00;;;1.00;99.90;;;;;;5082447;28;20040;-68
2022/01/08 02:40:20;;;;;;;0.00;0.00;;;1.00;99.90;;;;;;5082611;28;20093;-68
2022/01/08 02:42:59;;;;;;;0.00;0.00;;;-0.20;99.90;;;;;;5082959;28;20044;-68
2022/01/08 02:45:25;;;;;;;0.00;0.00;;;1.10;99.90;;;;;;5081722;28;20114;-68
2022/01/08 02:47:52;;;;;;;0.00;0.00;;;1.00;99.90;;;;;;5082287;28;20592;-69
2022/01/08 02:50:18;;;;;;;0.00;0.00;;;1.00;99.90;;;;;;5082476;28;20056;-68
2022/01/08 02:52:46;;;;;;;0.00;0.00;;;1.00;99.90;;;;;;5083037;28;20055;-69
2022/01/08 02:55:15;;;;;;;0.17;0.15;;;0.90;99.90;;;;;;5082032;28;20132;-69
2022/01/08 02:57:41;;;;;;;0.00;0.00;;;1.10;99.90;;;;;;5082331;28;20036;-66
2022/01/08 03:00:10;;;;;;;0.00;0.00;;;0.90;99.90;;;;;;5082380;28;20044;-69
2022/01/08 03:02:41;;;;;;;0.00;0.00;;;0.90;99.90;;;;;;5081938;28;20131;-68
2022/01/08 03:05:07;;;;;;;0.00;0.00;;;0.90;99.90;;;;;;5082448;28;20616;-69
2022/01/08 03:07:33;;;;;;;0.00;0.00;;;0.90;99.90;;;;;;5082492;28;20170;-68
2022/01/08 03:09:59;;;;;;;0.00;0.00;;;0.90;99.90;;;;;;5082276;28;20110;-68
2022/01/08 03:12:26;;;;;;;0.00;0.00;;;0.90;99.90;;;;;;5062785;28;20080;-69
2022/01/08 03:14:53;;;;;;;0.00;0.00;;;0.90;99.90;;;;;;5064362;28;20709;-68
2022/01/08 03:17:19;;;;;;;0.00;0.00;;;2.30;99.90;;;;;;5081618;28;20051;-64
2022/01/08 03:19:45;;;;;;;0.90;0.70;;;0.90;99.90;;;;;;5081808;28;20036;-68
2022/01/08 03:22:10;;;;;;;0.10;0.10;;;0.90;99.90;;;;;;5081365;28;20055;-69
2022/01/08 03:24:36;;;;;;;0.00;0.00;;;0.90;99.90;;;;;;5082055;28;20056;-68
2022/01/08 03:27:02;;;;;;;0.00;0.00;;;0.80;99.90;;;;;;5082209;28;20042;-68
2022/01/08 03:29:28;;;;;;;0.00;0.00;;;0.90;99.90;;;;;;5090222;28;20051;-69
2022/01/08 03:31:54;;;;;;;0.00;0.00;;;0.80;99.90;;;;;;5100760;28;20095;-69
2022/01/08 03:34:20;;;;;;;0.00;0.00;;;0.80;99.90;;;;;;5102251;28;20051;-68
2022/01/08 03:36:46;;;;;;;0.00;0.00;;;0.80;99.90;;;;;;5102093;28;20040;-68
2022/01/08 03:39:12;;;;;;;0.00;0.00;;;0.70;99.90;;;;;;5101778;28;20072;-68
2022/01/08 03:41:38;;;;;;;0.00;0.00;;;0.70;99.90;;;;;;5101189;28;20509;-68
2022/01/08 03:44:04;;;;;;;0.00;0.00;;;0.70;99.90;;;;;;5101977;28;20051;-68
2022/01/08 03:46:34;;;;;;;0.00;0.00;;;0.60;99.90;;;;;;5102136;28;20047;-67
2022/01/08 03:51:29;;;;;;;0.00;0.00;;;0.50;99.90;;;;;;5102660;28;20445;-68
2022/01/08 03:53:55;;;;;;;0.00;0.00;;;0.50;99.90;;;;;;5101607;28;20406;-68
2022/01/08 03:56:20;;;;;;;0.00;0.00;;;0.40;99.90;;;;;;5101776;28;20043;-68
2022/01/08 03:58:46;;;;;;;0.00;0.00;;;0.50;99.90;;;;;;5101184;28;20081;-68
2022/01/08 04:01:12;;;;;;;0.00;0.00;;;0.40;99.90;;;;;;5101148;28;20505;-68
2022/01/08 04:03:37;;;;;;;0.00;0.00;;;0.40;99.90;;;;;;5101854;28;20051;-69
2022/01/08 04:06:03;;;;;;;0.00;0.00;;;0.40;99.90;;;;;;5101184;28;20043;-69
2022/01/08 04:08:29;;;;;;;0.00;0.00;;;0.40;99.90;;;;;;5100993;28;20047;-68
2022/01/08 04:10:54;;;;;;;0.00;0.00;;;0.30;99.90;;;;;;5101308;28;20126;-70
2022/01/08 04:13:25;;;;;;;0.10;0.10;;;0.40;99.90;;;;;;5101782;28;20092;-68
2022/01/08 04:15:54;;;;;;;0.00;0.00;;;0.30;99.90;;;;;;5100792;28;20138;-69
2022/01/08 04:18:20;;;;;;;0.10;0.10;;;0.30;99.90;;;;;;5101542;28;20071;-68
2022/01/08 04:23:17;;;;;;;0.05;0.05;;;0.30;99.90;;;;;;5100910;28;20684;-68
2022/01/08 04:25:43;;;;;;;0.00;0.00;;;0.30;99.90;;;;;;5100397;28;20048;-68
2022/01/08 04:28:08;;;;;;;0.00;0.00;;;0.20;99.90;;;;;;5094542;28;20054;-68
2022/01/08 04:30:34;;;;;;;0.00;0.00;;;0.30;99.90;;;;;;5088561;28;20036;-68
2022/01/08 04:33:00;;;;;;;0.00;0.00;;;0.30;99.90;;;;;;5081164;28;20672;-68
2022/01/08 04:35:25;;;;;;;0.00;0.00;;;0.30;99.90;;;;;;5079905;28;20044;-68
2022/01/08 04:37:51;;;;;;;0.00;0.00;;;0.30;99.90;;;;;;5062595;28;20044;-68
2022/01/08 04:40:16;;;;;;;0.22;0.22;;;0.30;99.90;;;;;;5081140;28;20090;-68
2022/01/08 04:42:42;;;;;;;0.00;0.00;;;0.20;99.90;;;;;;5080880;28;20227;-68
2022/01/08 04:45:08;;;;;;;0.00;0.00;;;0.30;99.90;;;;;;5079338;28;20110;-68
2022/01/08 04:47:34;;;;;;;0.00;0.00;;;0.30;99.90;;;;;;5080666;28;20042;-68
2022/01/08 04:49:59;;;;;;;0.00;0.00;;;0.20;99.90;;;;;;5080070;28;20052;-69
2022/01/08 04:52:26;;;;;;;0.00;0.00;;;0.30;99.90;;;;;;5080643;28;20044;-68
2022/01/08 04:54:51;;;;;;;0.00;0.00;;;0.30;99.90;;;;;;5079949;28;20044;-68
2022/01/08 04:57:17;;;;;;;0.00;0.00;;;0.30;99.90;;;;;;5080769;28;20051;-68
2022/01/08 04:59:43;;;;;;;0.00;0.00;;;0.30;99.90;;;;;;5080424;28;20609;-68
2022/01/08 05:02:08;;;;;;;0.00;0.00;;;0.30;99.90;;;;;;5080137;28;20055;-67
2022/01/08 05:04:34;;;;;;;0.00;0.00;;;-0.70;99.90;;;;;;5080028;28;20036;-68
2022/01/08 05:07:00;;;;;;;0.00;0.00;;;0.30;99.90;;;;;;5062364;28;20607;-68
2022/01/08 05:09:25;;;;;;;0.00;0.00;;;0.40;99.90;;;;;;5080254;28;20059;-68
2022/01/08 05:11:51;;;;;;;0.00;0.00;;;0.40;99.90;;;;;;5080325;28;20478;-69
2022/01/08 05:14:17;;;;;;;0.00;0.00;;;0.40;99.90;;;;;;5080068;28;20402;-69
2022/01/08 05:16:44;;;;;;;0.00;0.00;;;0.40;99.90;;;;;;5079464;28;20442;-68
2022/01/08 05:19:10;;;;;;;0.00;0.00;;;0.50;99.90;;;;;;5080367;28;20044;-68
2022/01/08 05:21:38;;;;;;;0.00;0.00;;;0.50;99.90;;;;;;5079839;28;20395;-68
2022/01/08 05:24:04;;;;;;;0.00;0.00;;;0.50;99.90;;;;;;5080400;28;20048;-69
2022/01/08 05:26:30;;;;;;;0.00;0.00;;;0.50;99.90;;;;;;5080920;28;20040;-68
2022/01/08 05:28:55;;;;;;;0.00;0.00;;;0.50;99.90;;;;;;5089576;28;20134;-68
2022/01/08 05:31:23;;;;;;;0.00;0.00;;;0.50;99.90;;;;;;5080636;28;20055;-68
2022/01/08 05:33:50;;;;;;;0.00;0.00;;;0.40;99.90;;;;;;5080379;28;20047;-68
2022/01/08 05:36:16;;;;;;;0.00;0.00;;;0.50;99.90;;;;;;5082567;28;20048;-67
2022/01/08 05:38:41;;;;;;;0.00;0.00;;;0.50;99.90;;;;;;5083921;28;20039;-68
2022/01/08 05:41:07;;;;;;;0.00;0.00;;;0.60;99.90;;;;;;5083314;28;20048;-68
2022/01/08 05:43:33;;;;;;;0.00;0.00;;;0.60;99.90;;;;;;5084013;28;20044;-68
2022/01/08 05:45:59;;;;;;;0.00;0.00;;;0.70;99.90;;;;;;5083665;28;20120;-69
2022/01/08 05:48:26;;;;;;;0.00;0.00;;;0.60;99.90;;;;;;5083666;28;20083;-68
2022/01/08 05:50:52;;;;;;;0.00;0.00;;;0.60;99.90;;;;;;5064724;28;20066;-68
2022/01/08 05:53:18;;;;;;;0.00;0.00;;;0.70;99.90;;;;;;5083764;28;20282;-68
2022/01/08 05:55:44;;;;;;;0.00;0.00;;;0.60;99.90;;;;;;5083563;28;20044;-68
2022/01/08 05:58:10;;;;;;;0.00;0.00;;;0.60;99.90;;;;;;5083182;28;20445;-69
2022/01/08 06:00:36;;;;;;;0.00;0.00;;;0.60;99.90;;;;;;5083208;28;20040;-68
2022/01/08 06:03:01;;;;;;;0.00;0.00;;;0.60;99.90;;;;;;5083583;28;20545;-68
2022/01/08 06:05:27;;;;;;;0.00;0.00;;;0.50;99.90;;;;;;5083473;28;20044;-68
2022/01/08 06:07:53;;;;;;;0.00;0.00;;;0.50;99.90;;;;;;5083164;28;20048;-68
2022/01/08 06:10:19;;;;;;;0.00;0.00;;;0.50;99.90;;;;;;5083443;28;20048;-64
2022/01/08 06:12:46;;;;;;;0.00;0.00;;;0.50;99.90;;;;;;5083085;28;20044;-68
2022/01/08 06:15:11;;;;;;;0.00;0.00;;;0.50;99.90;;;;;;5082538;28;20075;-68
2022/01/08 06:17:37;;;;;;;0.00;0.00;;;0.40;99.90;;;;;;5082727;28;20083;-68
2022/01/08 06:20:05;;;;;;;0.00;0.00;;;0.40;99.90;;;;;;5083442;28;20044;-68
2022/01/08 06:22:30;;;;;;;0.08;0.08;;;0.70;99.90;;;;;;5083595;28;20122;-69
2022/01/08 06:24:56;;;;;;;0.00;0.00;;;0.40;99.90;;;;;;5083001;28;20139;-68
2022/01/08 06:27:22;;;;;;;0.55;0.55;;;0.40;99.90;;;;;;5083211;28;20128;-68
2022/01/08 06:29:47;;;;;;;0.00;0.00;;;0.40;99.90;;;;;;5092341;28;20054;-68
2022/01/08 06:32:14;;;;;;;0.20;0.20;;;0.30;99.90;;;;;;5048252;28;20048;-68
2022/01/08 06:34:41;;;;;;;0.00;0.00;;;0.50;99.90;;;;;;5083400;28;20098;-69
2022/01/08 06:37:07;;;;;;;0.00;0.00;;;0.30;99.90;;;;;;5082328;28;20090;-69
2022/01/08 06:39:32;;;;;;;0.00;0.00;;;0.30;99.90;;;;;;5065044;28;20600;-68
2022/01/08 06:41:58;;;;;;;0.00;0.00;;;0.30;99.90;;;;;;5065176;28;20048;-68
2022/01/08 06:44:24;;;;;;;0.00;0.00;;;0.30;99.90;;;;;;5064779;28;20060;-68
2022/01/08 06:46:49;;;;;;;0.00;0.00;;;0.30;99.90;;;;;;5081277;28;20699;-68
2022/01/08 06:49:15;;;;;;;0.00;0.00;;;0.60;99.90;;;;;;5082497;28;20741;-68
2022/01/08 06:51:41;;;;;;;0.00;0.00;;;0.30;99.90;;;;;;5064663;28;20052;-68
2022/01/08 06:54:07;;;;;;;0.00;0.00;;;0.40;99.90;;;;;;5082738;28;20036;-68
2022/01/08 06:56:32;;;;;;;0.03;0.03;;;0.20;99.90;;;;;;5082390;28;20134;-61
2022/01/08 06:58:58;;;;;;;0.00;0.00;;;0.30;99.90;;;;;;5082573;28;20428;-68
2022/01/08 07:01:24;;;;;;;0.00;0.00;;;0.20;99.90;;;;;;5081756;28;20093;-68
2022/01/08 07:03:50;;;;;;;0.00;0.00;;;0.30;99.90;;;;;;5081934;28;20143;-68
2022/01/08 07:06:16;;;;;;;0.00;0.00;;;0.30;99.90;;;;;;5082277;28;20040;-68
2022/01/08 07:08:42;;;;;;;0.00;0.00;;;0.30;99.90;;;;;;5081903;28;20044;-68
2022/01/08 07:11:07;;;;;;;2.20;2.10;;;0.30;99.90;;;;;;5082345;28;20509;-68
2022/01/08 07:13:33;;;;;;;0.00;0.00;;;-0.10;99.90;;;;;;5082030;28;20074;-68
2022/01/08 07:15:59;;;;;;;0.00;0.00;;;0.20;99.90;;;;;;5081456;28;20052;-68
2022/01/08 07:18:24;;;;;;;0.00;0.00;;;0.20;99.90;;;;;;5063533;28;20036;-68
2022/01/08 07:20:50;;;;;;;0.00;0.00;;;0.20;99.90;;;;;;5082079;28;20048;-68
2022/01/08 07:23:15;;;;;;;0.10;0.10;;;0.30;99.90;;;;;;5081536;28;20043;-68
2022/01/08 07:25:41;;;;;;;0.00;0.00;;;0.20;99.90;;;;;;5081542;28;20058;-67
2022/01/08 07:28:07;;;;;;;0.00;0.00;;;0.30;99.90;;;;;;5084518;28;20035;-68
2022/01/08 07:30:32;;;;;;;0.00;0.00;;;0.30;99.90;;;;;;5089745;28;20083;-63
2022/01/08 07:32:58;;;;;;;0.00;0.00;;;0.20;99.90;;;;;;5081419;28;20506;-68
2022/01/08 07:35:24;;;;;;;0.00;0.00;;;0.20;99.90;;;;;;5063645;28;20062;-70
2022/01/08 07:37:51;;;;;;;0.25;0.25;;;0.20;99.90;;;;;;5063462;28;20084;-68
2022/01/08 07:40:18;;;;;;;0.00;0.00;;;0.20;99.90;;;;;;5081551;28;20051;-67
2022/01/08 07:42:43;;;;;;;0.00;0.00;;;0.30;99.90;;;;;;5080880;28;20043;-69
2022/01/08 07:45:10;;;;;;;0.00;0.00;;;0.20;99.90;;;;;;5080882;28;20040;-67
2022/01/08 07:47:36;;;;;;;0.00;0.00;;;0.20;99.90;;;;;;5081464;28;20069;-68
2022/01/08 07:50:03;;;;;;;0.52;0.52;;;0.20;99.90;;;;;;5081402;28;20147;-68
2022/01/08 07:52:28;;;;;;;0.00;0.00;;;0.20;99.90;;;;;;5081194;28;20052;-68
2022/01/08 07:54:54;;;;;;;0.00;0.00;;;0.20;99.90;;;;;;5081606;28;20036;-68
2022/01/08 07:57:20;;;;;;;0.00;0.00;;;0.20;99.90;;;;;;5081088;28;20122;-67
2022/01/08 07:59:45;;;;;;;0.00;0.00;;;0.10;99.90;;;;;;5061720;28;20170;-68
2022/01/08 08:02:11;;;;;;;0.00;0.00;;;0.20;99.90;;;;;;5062567;28;20048;-68
2022/01/08 08:04:37;;;;;;;0.00;0.00;;;0.20;99.90;;;;;;5081464;28;20044;-68
2022/01/08 08:07:03;;;;;;;0.00;0.00;;;0.20;99.90;;;;;;5062546;28;20048;-68
2022/01/08 08:09:29;;;;;;;0.00;0.00;;;0.20;99.90;;;;;;5081366;28;20082;-67
2022/01/08 08:11:55;;;;;;;0.00;0.00;;;0.20;99.90;;;;;;5062605;28;20067;-68
2022/01/08 08:14:21;;;;;;;0.00;0.00;;;0.30;99.90;;;;;;5080609;28;20040;-68
2022/01/08 08:16:47;;;;;;;0.00;0.00;;;0.30;99.90;;;;;;5080189;28;20052;-67
2022/01/08 08:19:12;;;;;;;0.55;0.55;;;0.30;99.90;;;;;;5081213;28;20170;-67
2022/01/08 08:21:38;;;;;;;0.00;0.00;;;0.30;99.90;;;;;;5080754;28;20636;-67
2022/01/08 08:24:06;;;;;;;0.00;0.00;;;0.30;99.90;;;;;;5080718;28;20051;-67
2022/01/08 08:26:32;;;;;;;0.00;0.00;;;0.20;99.90;;;;;;5081168;28;20032;-69
2022/01/08 08:28:58;;;;;;;0.00;0.00;;;0.30;99.90;;;;;;5090074;28;20176;-68
2022/01/08 08:31:24;;;;;;;0.00;0.00;;;0.20;99.90;;;;;;5078983;28;20131;-67
2022/01/08 08:33:49;;;;;;;0.00;0.00;;;0.30;99.90;;;;;;5080714;28;20032;-67
2022/01/08 08:36:15;;;;;;;0.00;0.00;;;0.30;99.90;;;;;;5080807;28;20199;-68
2022/01/08 08:38:41;;;;;;;0.00;0.00;;;0.30;99.90;;;;;;5062159;28;20494;-68
2022/01/08 08:41:06;;;;;;;0.00;0.00;;;0.70;99.90;;;;;;5080751;28;20059;-67
2022/01/08 08:43:32;;;;;;;0.00;0.00;;;0.40;99.90;;;;;;5045872;28;20355;-68
2022/01/08 08:45:58;;;;;;;0.00;0.00;;;0.40;99.90;;;;;;5080200;28;20032;-68
2022/01/08 08:48:23;;;;;;;0.00;0.00;;;2.30;99.90;;;;;;5079908;28;20051;-68
2022/01/08 08:50:49;;;;;;;0.00;0.00;;;0.50;99.90;;;;;;5080733;28;20507;-68
2022/01/08 08:53:15;;;;;;;0.00;0.00;;;0.60;99.90;;;;;;5080504;28;20068;-68
2022/01/08 08:55:40;;;;;;;0.00;0.00;;;0.60;99.90;;;;;;5080290;28;20123;-63
2022/01/08 08:58:06;;;;;;;0.00;0.00;;;0.80;99.90;;;;;;5079706;28;20052;-69
2022/01/08 09:00:32;;;;;;;0.00;0.00;;;0.80;99.90;;;;;;5080226;28;20044;-68
2022/01/08 09:02:58;;;;;;;0.00;0.00;;;1.00;99.90;;;;;;5080874;28;20136;-68
2022/01/08 09:05:23;;;;;;;0.00;0.00;;;1.00;99.90;;;;;;5062420;28;20526;-68
2022/01/08 09:07:49;;;;;;;0.00;0.00;;;1.10;99.90;;;;;;5079450;28;20051;-69
2022/01/08 09:10:15;;;;;;;0.00;0.00;;;1.20;99.90;;;;;;5080978;28;20048;-68
2022/01/08 09:12:42;;;;;;;0.20;0.20;;;1.30;99.90;;;;;;5066204;28;20040;-64
2022/01/08 09:15:09;;;;;;;0.00;0.00;;;1.40;99.90;;;;;;5083758;28;20055;-72
2022/01/08 09:17:39;;;;;;;0.10;0.10;;;1.40;99.90;;;;;;5083849;28;20133;-69
2022/01/08 09:20:05;;;;;;;0.08;0.08;;;1.40;99.90;;;;;;5084184;28;20430;-71
2022/01/08 09:22:31;;;;;;;0.00;0.00;;;1.40;99.90;;;;;;5084837;28;20055;-70
2022/01/08 09:24:57;;;;;;;0.00;0.00;;;1.40;99.90;;;;;;5084114;28;20497;-71
2022/01/08 09:27:23;;;;;;;0.00;0.00;;;1.40;99.90;;;;;;5066479;28;20109;-70
2022/01/08 09:29:49;;;;;;;0.00;0.00;;;1.40;99.90;;;;;;5093389;28;20048;-68
2022/01/08 09:32:17;;;;;;;0.00;0.00;;;1.50;99.90;;;;;;5084465;28;20047;-68
2022/01/08 09:34:44;;;;;;;0.00;0.00;;;1.70;99.90;;;;;;5065255;28;20482;-69
2022/01/08 09:37:10;;;;;;;0.00;0.00;;;1.60;99.90;;;;;;5084384;28;20070;-69
2022/01/08 09:39:35;;;;;;;0.00;0.00;;;1.70;99.90;;;;;;5084164;28;20044;-70
2022/01/08 09:42:03;;;;;;;0.10;0.10;;;1.90;99.90;;;;;;5065921;28;20036;-69
2022/01/08 09:44:29;;;;;;;0.00;0.00;;;1.90;99.90;;;;;;5083463;28;20551;-70
2022/01/08 09:46:54;;;;;;;0.00;0.00;;;2.20;99.90;;;;;;5065692;28;20036;-70
2022/01/08 09:49:20;;;;;;;0.00;0.00;;;2.70;99.90;;;;;;5083417;28;20127;-68
2022/01/08 09:51:46;;;;;;;0.00;0.00;;;3.20;99.90;;;;;;5083702;28;20092;-69
2022/01/08 09:54:14;;;;;;;0.00;0.00;;;3.60;99.90;;;;;;5083115;28;20486;-70
2022/01/08 09:56:40;;;;;;;0.00;0.00;;;3.70;99.90;;;;;;5065404;28;20044;-60
2022/01/08 09:59:06;;;;;;;0.00;0.00;;;3.80;99.90;;;;;;5083526;28;20036;-68
2022/01/08 10:01:35;;;;;;;0.00;0.00;;;4.00;99.90;;;;;;5083391;28;20494;-68
2022/01/08 10:04:02;;;;;;;0.00;0.00;;;3.90;99.90;;;;;;5065203;28;20079;-67
2022/01/08 10:06:34;;;;;;;0.00;0.00;;;3.70;99.90;;;;;;5065872;28;20039;-68
2022/01/08 10:08:59;;;;;;;0.00;0.00;;;4.00;99.90;;;;;;5084063;28;20401;-67
2022/01/08 10:11:26;;;;;;;0.00;0.00;;;4.60;99.90;;;;;;5064987;28;20131;-67
2022/01/08 10:14:04;;;;;;;0.00;0.00;;;4.50;99.90;;;;;;5083318;28;20044;-67
2022/01/08 10:19:21;;;;;;;0.00;0.00;;;5.00;99.90;;;;;;5083336;28;20048;-67
2022/01/08 10:21:48;;;;;;;0.00;0.00;;;4.80;99.90;;;;;;5083003;28;20047;-67
2022/01/08 10:24:22;;;;;;;0.10;0.10;;;3.80;99.90;;;;;;5065112;28;20059;-69
2022/01/08 10:26:49;;;;;;;0.00;0.00;;;3.70;99.90;;;;;;5083115;28;20044;-69
2022/01/08 10:29:22;;;;;;;0.00;0.00;;;3.30;99.90;;;;;;5093733;28;20432;-68
2022/01/08 10:31:52;;;;;;;0.00;0.00;;;3.00;99.90;;;;;;5082410;28;20044;-68
2022/01/08 10:34:24;;;;;;;0.00;0.00;;;3.30;99.90;;;;;;5083233;28;20142;-69
2022/01/08 10:37:01;;;;;;;0.00;0.00;;;3.40;99.90;;;;;;5082950;28;20036;-68
2022/01/08 10:39:35;;;;;;;0.10;0.10;;;3.40;99.90;;;;;;5082484;28;20075;-69
2022/01/08 10:42:09;;;;;;;0.00;0.00;;;3.30;99.90;;;;;;5083121;28;20079;-67
2022/01/08 10:44:35;;;;;;;0.00;0.00;;;2.70;99.90;;;;;;5082111;28;20062;-68
2022/01/08 10:47:13;;;;;;;0.00;0.00;;;2.70;99.90;;;;;;5064520;28;20052;-68
2022/01/08 10:49:56;;;;;;;0.00;0.00;;;2.70;99.90;;;;;;5064617;28;20056;-68
2022/01/08 10:52:22;;;;;;;0.00;0.00;;;2.60;99.90;;;;;;5063549;28;20098;-68
2022/01/08 10:55:01;;;;;;;0.00;0.00;;;2.40;99.90;;;;;;5082268;28;20051;-68
2022/01/08 10:57:38;;;;;;;0.00;0.00;;;2.40;99.90;;;;;;5082335;28;20135;-68
2022/01/08 11:00:05;;;;;;;0.20;0.20;;;2.40;99.90;;;;;;5081084;28;20524;-67
2022/01/08 11:02:31;;;;;;;0.03;0.03;;;2.40;99.90;;;;;;5082688;28;20070;-68
2022/01/08 11:04:57;;;;;;;0.00;0.00;;;3.60;99.90;;;;;;5064468;28;20056;-69
2022/01/08 11:07:32;;;;;;;0.00;0.00;;;2.30;99.90;;;;;;5081659;28;20059;-70
2022/01/08 11:10:01;;;;;;;0.00;0.00;;;2.40;99.90;;;;;;5082394;28;20120;-67
2022/01/08 11:12:33;;;;;;;0.57;0.57;;;2.40;99.90;;;;;;5082282;28;20207;-68
2022/01/08 11:15:22;;;;;;;0.00;0.00;;;3.50;99.90;;;;;;5081135;28;20044;-68
2022/01/08 11:17:49;;;;;;;0.00;0.00;;;2.20;99.90;;;;;;5081833;28;20043;-68
2022/01/08 11:20:24;;;;;;;0.00;0.00;;;2.20;99.90;;;;;;5063772;28;20079;-68
2022/01/08 11:22:53;;;;;;;0.00;0.00;;;2.20;99.90;;;;;;5082276;28;20139;-68
2022/01/08 11:25:27;;;;;;;0.00;0.00;;;2.20;99.90;;;;;;5082329;28;20169;-68
2022/01/08 11:28:07;;;;;;;;;;;2.30;99.90;;;;;;5083932;28;20048;-68
2022/01/08 11:30:42;;;;;;;0.00;0.00;;;2.30;99.90;;;;;;5081736;28;19952;-68
2022/01/08 11:33:18;;;;;;;0.00;0.00;;;2.30;99.90;;;;;;5081152;28;20697;-70
2022/01/08 11:35:45;;;;;;;0.00;0.00;;;2.40;99.90;;;;;;5047427;28;20048;-67
2022/01/08 11:38:14;;;;;;;0.00;0.00;;;2.60;99.90;;;;;;5063726;28;20082;-67
2022/01/08 11:40:43;;;;;;;0.00;0.00;;;2.70;99.90;;;;;;5081655;28;20069;-68
2022/01/08 11:43:11;;;;;;;0.00;0.00;;;2.70;99.90;;;;;;5081068;28;20102;-67
2022/01/08 11:45:48;;;;;;;0.00;0.00;;;3.90;99.90;;;;;;5090756;28;20078;-66
2022/01/08 11:48:17;;;;;;;0.30;0.30;;;2.90;99.90;;;;;;5081180;28;20051;-66
2022/01/08 11:50:52;;;;;;;2.08;0.50;;;3.00;99.90;;;;;;5071243;28;20048;-66
2022/01/08 11:53:26;;;;;;;0.00;0.00;;;2.70;99.90;;;;;;5101503;28;20048;-67
2022/01/08 11:56:04;;;;;;;0.00;0.00;;;3.10;99.90;;;;;;5100951;28;20043;-67
2022/01/08 11:58:37;;;;;;;0.00;0.00;;;4.40;99.90;;;;;;5101742;28;20097;-65
2022/01/08 12:01:05;;;;;;;0.00;0.00;;;2.80;99.90;;;;;;5100681;28;20051;-60
2022/01/08 12:03:47;;;;;;;0.00;0.00;;;3.00;99.90;;;;;;5100985;28;20056;-66
2022/01/08 12:06:22;;;;;;;0.03;0.03;;;3.00;99.90;;;;;;5101477;28;20081;-65
2022/01/08 12:11:44;;;;;;;0.00;0.00;;;3.00;99.90;;;;;;5101240;28;20052;-67
2022/01/08 12:14:12;;;;;;;0.00;0.00;;;3.00;99.90;;;;;;5099427;28;20482;-69
2022/01/08 12:16:40;;;;;;;0.00;0.00;;;2.90;99.90;;;;;;5100101;28;20055;-66
2022/01/08 12:19:08;;;;;;;0.60;0.35;;;2.80;99.90;;;;;;5100677;28;20031;-67
2022/01/08 12:21:40;;;;;;;0.80;0.80;;;2.90;99.90;;;;;;5101274;28;20031;-66
2022/01/08 12:24:27;;;;;;;0.00;0.00;;;2.80;99.90;;;;;;5100538;28;20494;-67
2022/01/08 12:27:17;;;;;;;0.00;0.00;;;2.80;99.90;;;;;;5100316;28;20035;-67
2022/01/08 12:29:43;;;;;;;0.00;0.00;;;2.80;99.90;;;;;;5076994;28;20157;-68
2022/01/08 12:32:22;;;;;;;0.00;0.00;;;2.80;99.90;;;;;;5100687;28;20059;-68
2022/01/08 12:34:49;;;;;;;0.00;0.00;;;3.20;99.90;;;;;;5097596;28;20043;-68
2022/01/08 12:37:17;;;;;;;0.20;0.20;;;2.80;99.90;;;;;;5082511;28;20044;-68
2022/01/08 12:39:43;;;;;;;1.25;1.17;;;2.90;99.90;;;;;;5100628;28;20499;-68
2022/01/08 12:42:23;;;;;;;0.00;0.00;;;2.90;99.90;;;;;;5100397;28;20044;-68
2022/01/08 12:45:12;;;;;;;0.10;0.10;;;3.10;99.90;;;;;;5097248;28;20078;-68
2022/01/08 12:47:52;;;;;;;0.00;0.00;;;2.90;99.90;;;;;;5099491;28;20082;-68
2022/01/08 12:50:27;;;;;;;1.60;0.57;;;2.90;99.90;;;;;;5098738;28;20134;-63
2022/01/08 12:53:08;;;;;;;0.00;0.00;;;2.90;99.90;;;;;;5098396;28;20043;-69
2022/01/08 12:55:55;;;;;;;2.45;2.35;;;3.60;99.90;;;;;;5098606;28;20040;-68
2022/01/08 12:58:33;;;;;;;0.00;0.00;;;2.90;99.90;;;;;;5099761;28;20047;-66
2022/01/08 13:01:07;;;;;;;0.00;0.00;;;2.90;99.90;;;;;;5099043;28;20086;-67
2022/01/08 13:03:35;;;;;;;0.00;0.00;;;3.00;99.90;;;;;;5100527;28;20058;-63
2022/01/08 13:06:28;;;;;;;0.65;0.60;;;2.90;99.90;;;;;;5100258;28;20051;-68
2022/01/08 13:08:55;;;;;;;0.00;0.00;;;2.90;99.90;;;;;;5100202;28;20413;-68
2022/01/08 13:11:31;;;;;;;0.00;0.00;;;2.90;99.90;;;;;;5100502;28;20414;-68
2022/01/08 13:14:02;;;;;;;0.00;0.00;;;2.80;99.90;;;;;;5100013;28;20443;-69
2022/01/08 13:16:29;;;;;;;0.10;0.10;;;2.80;99.90;;;;;;5082515;28;20052;-69
2022/01/08 13:19:13;;;;;;;0.00;0.00;;;2.80;99.90;;;;;;5100265;28;20063;-68
2022/01/08 13:21:43;;;;;;;0.00;0.00;;;2.80;99.90;;;;;;5100445;28;20269;-69
2022/01/08 13:24:19;;;;;;;0.00;0.00;;;2.80;99.90;;;;;;5100518;28;20306;-70
2022/01/08 13:26:57;;;;;;;0.00;0.00;;;2.80;99.90;;;;;;5082058;28;20180;-69
2022/01/08 13:29:31;;;;;;;0.00;0.00;;;2.90;99.90;;;;;;5094722;28;20047;-67
2022/01/08 13:32:04;;;;;;;0.20;0.20;;;3.00;99.90;;;;;;5062698;28;20118;-68